Scroll down
FLIGHT INFORMATION
Federal Express (FedEx)

FDX9008

At Arrival Gate

OMDB
 FAOR
DATE: 2022-05-29
GATE:  -
GATE DEPARTURE: 15:38
TAKEOFF: 15:51
DATE: 2022-05-29
GATE:  -
LANDING: 23:29
GATE ARRIVAL: 23:36
FLIGHT DATA
Crew: 
Speed: 
508 kts
Altitude: 
39,010 ft
Stage Length: 
3,462.6 nm
Block Time: 
7.9 hrs
Flight Time: 
7.7 hrs
Fuel Used: 
120,029 lb
Cleared Route: OMDB ANVIX GIDIS DESVU VAVIM ASPED ELUDA UKRAG MEMTU GOGMI ITKUN DEBAV EMAVA ITETA IVENI KASIN KEDON KUKDI ITUVO LABED ASTUN DAXAM MUTVA IMKAD NODMA RIGAM RAPDO VEDET EVAKA AVEDA APMOL EGTUL BUBEM MOGDU RAGGS ITMAR EVARU IMKAK NIDED ELAVA AVEKI DV KASIM ROVUM NIBOR TMA33 DVL TMA36 ESPOP UBTIM USUBI AVOSI APLIS AXILA VMV UTULI GWV DUMGO NESAG OKPIT FAOR
TRACK DATA
50,000 ft 1,000 kts
AIRCRAFT INFO AND CUMULATIVE STATS
Aircraft Type: 
B77LF
Registration: 
SELCAL: 
HKBD
MSN/LN: 
41066 / 1048
Total Flights: 
2
Total Block Time: 
11.2 hrs
Total Flight Time: 
10.7 hrs
Total Fuel Used: 
173,722 lb
DATALINK LOG | Newest first | Current as of: 2022-10-04 19:27:13
LABEL SEQUENCE CONTENT Dn/Up
QD465123:36 37.9▼ Dn
QC384123:29▼ Dn
2U0010FAOR 291830Z 29006KT CAVOK 14/07 Q1024 NOSIG▲ Up
2S0007FAOR▼ Dn
QB005815:51▼ Dn
QA474415:38 158▼ Dn
2U2323OOMS 291050Z 03006KT 350V080 CAVOK 35/26 Q1001 NOSIG▲ Up
2U2323OMDB 291100Z 34010KT CAVOK 41/12 Q1001 NOSIG▲ Up
2U2322FSIA 291100Z 12012KT 100V160 9999 FEW022 29/23 Q1010 NOSIG▲ Up
2U2322FAOR 291100Z 31017KT CAVOK 18/07 Q1023 NOSIG▲ Up
2U2321FALE 291100Z 12006KT 080V160 9999 FEW023 23/18 Q1010 NOSIG▲ Up
2S2321OMDB FAOR FALE FSIA OOMS▼ Dn
A32221CLEARED TO FAOR VIA ANVIX R401 GIDIS G783 UKRAG L710 KUKDI B400 VEDET UL437G ITMAR UL437 DVL UM315 USUBI UR409 VMV UP312 GWV UZ11 NESAG UZ7 OKPIT . SQUAWK 3677.▲ Up
B32220OMDB FAOR FDX9008 N887FD ▼ Dn
Q02120[LINK ACK]▲ Up
Q02120[LINK TEST]▼ Dn


AIRCRAFT HISTORY
FLIGHT DATE FLIGHT NO. ORIGIN DESTINATION CLEARED ROUTE BLOCK TIME FLIGHT TIME FUEL USED PILOT
2022-05-29FDX9008OMDB FAOR OMDB ANVIX GIDIS DESVU VAVIM ASPED ELUDA UKRAG MEMTU GOGMI ITKUN DEBAV EMAVA ITETA IVENI KASIN KEDON KUKDI ITUVO LABED ASTUN DAXAM MUTVA IMKAD NODMA RIGAM RAPDO VEDET EVAKA AVEDA APMOL EGTUL BUBEM MOGDU RAGGS ITMAR EVARU IMKAK NIDED ELAVA AVEKI DV KASIM ROVUM NIBOR TMA33 DVL TMA36 ESPOP UBTIM USUBI AVOSI APLIS AXILA VMV UTULI GWV DUMGO NESAG OKPIT FAOR7.9 hrs7.7 hrs120,029 lbAllan Burek
2021-02-16FDX5279VIDP OMDB VIDP SURAM LUN MERUN RK LUBNA SK IDEBA BIREX PG ADGUL TAPDO VUSET UMEKO BORER PASOV KUPMA ORKOB MIVEK IMPED OMDB3.3 hrs3 hrs53,693 lbAllan Burek